Time;durP1;ratioP1;P1;durP2;ratioP2;P2;SDS_P1;SDS_P2;PMS_P1;PMS_P2;Temp;Humidity;BMP_temperature;BMP_pressure;BME280_temperature;BME280_humidity;BME280_pressure;Samples;Min_cycle;Max_cycle;Signal;HPM_P1;HPM_P2
2023/12/02 00:00:54;;;;;;;13.47;10.70;;;3.50;99.90;;;;;;5044192;28;20210;-56
2023/12/02 00:03:22;;;;;;;13.03;10.00;;;3.30;99.90;;;;;;5045725;28;20259;-57
2023/12/02 00:05:50;;;;;;;14.57;10.60;;;3.40;99.90;;;;;;5044661;28;20202;-56
2023/12/02 00:08:17;;;;;;;13.50;10.23;;;3.50;99.90;;;;;;5042182;28;20532;-57
2023/12/02 00:10:43;;;;;;;15.70;13.48;;;3.50;99.90;;;;;;5046565;28;20443;-60
2023/12/02 00:13:10;;;;;;;12.93;10.40;;;3.60;99.90;;;;;;5045049;28;20674;-59
2023/12/02 00:15:37;;;;;;;13.70;10.07;;;3.70;99.90;;;;;;5049079;28;20271;-60
2023/12/02 00:18:03;;;;;;;14.87;11.37;;;3.80;99.90;;;;;;5044285;28;20640;-61
2023/12/02 00:20:31;;;;;;;13.53;10.80;;;3.80;99.90;;;;;;5052033;28;20209;-60
2023/12/02 00:22:58;;;;;;;14.97;11.43;;;3.90;99.90;;;;;;5050310;28;20209;-61
2023/12/02 00:25:25;;;;;;;15.10;11.10;;;3.80;99.90;;;;;;5046497;28;20605;-57
2023/12/02 00:27:51;;;;;;;14.73;11.17;;;3.70;99.90;;;;;;5070963;28;20278;-57
2023/12/02 00:30:18;;;;;;;14.27;10.77;;;3.60;99.90;;;;;;5060566;28;20202;-57
2023/12/02 00:32:45;;;;;;;15.50;10.80;;;3.50;99.90;;;;;;5044913;28;20615;-58
2023/12/02 00:35:12;;;;;;;16.20;11.97;;;3.60;99.90;;;;;;5041696;28;20214;-56
2023/12/02 00:37:40;;;;;;;16.10;11.43;;;3.60;99.90;;;;;;5041619;28;20222;-56
2023/12/02 00:40:08;;;;;;;16.87;11.87;;;3.60;99.90;;;;;;5044731;28;20213;-57
2023/12/02 00:42:35;;;;;;;14.63;10.77;;;3.60;99.90;;;;;;5045075;28;20209;-56
2023/12/02 00:45:02;;;;;;;15.60;11.23;;;3.50;99.90;;;;;;5042515;28;20201;-54
2023/12/02 00:47:28;;;;;;;16.27;11.77;;;3.40;99.90;;;;;;5041312;28;20218;-56
2023/12/02 00:49:55;;;;;;;14.57;10.90;;;3.30;99.90;;;;;;5042874;28;20210;-57
2023/12/02 00:52:22;;;;;;;16.77;12.07;;;3.30;99.90;;;;;;5044705;28;20209;-56
2023/12/02 00:54:50;;;;;;;16.87;12.63;;;3.30;99.90;;;;;;5044244;28;20671;-57
2023/12/02 00:57:16;;;;;;;17.57;12.77;;;3.20;99.90;;;;;;5041144;28;20602;-57
2023/12/02 00:59:43;;;;;;;18.37;13.37;;;3.10;99.90;;;;;;5041316;28;20675;-59
2023/12/02 01:02:11;;;;;;;19.30;13.67;;;3.10;99.90;;;;;;5041401;28;20226;-55
2023/12/02 01:04:37;;;;;;;18.27;13.00;;;3.10;99.90;;;;;;5041365;28;20741;-57
2023/12/02 01:07:04;;;;;;;17.30;12.07;;;3.10;99.90;;;;;;5043534;28;20726;-57
2023/12/02 01:09:31;;;;;;;18.13;12.73;;;3.00;99.90;;;;;;5044790;28;20717;-59
2023/12/02 01:11:59;;;;;;;17.87;12.90;;;3.00;99.90;;;;;;5042540;28;20216;-57
2023/12/02 01:14:26;;;;;;;17.60;12.87;;;3.10;99.90;;;;;;5041175;28;20210;-57
2023/12/02 01:16:52;;;;;;;17.67;12.40;;;3.10;99.90;;;;;;5041582;28;20238;-57
2023/12/02 01:19:19;;;;;;;17.97;13.07;;;3.20;99.90;;;;;;5044438;28;20201;-57
2023/12/02 01:21:46;;;;;;;18.37;12.97;;;3.20;99.90;;;;;;5044084;28;20300;-57
2023/12/02 01:24:12;;;;;;;19.90;13.53;;;3.20;99.90;;;;;;5040844;28;20257;-56
2023/12/02 01:26:39;;;;;;;18.73;13.10;;;3.20;99.90;;;;;;5040150;28;20229;-57
2023/12/02 01:29:07;;;;;;;17.73;12.37;;;3.00;99.90;;;;;;5043423;28;20221;-57
2023/12/02 01:31:33;;;;;;;17.70;12.80;;;2.90;99.90;;;;;;5043884;28;20209;-57
2023/12/02 01:34:00;;;;;;;20.73;13.70;;;2.90;99.90;;;;;;5042088;28;20202;-56
2023/12/02 01:36:27;;;;;;;19.80;13.63;;;3.00;99.90;;;;;;5040370;28;20277;-57
2023/12/02 01:38:54;;;;;;;19.67;13.77;;;3.00;99.90;;;;;;5041582;28;20256;-57
2023/12/02 01:41:20;;;;;;;17.73;12.93;;;3.00;99.90;;;;;;5043756;28;20239;-55
2023/12/02 01:43:47;;;;;;;15.97;12.27;;;3.00;99.90;;;;;;5043477;28;20263;-56
2023/12/02 01:46:16;;;;;;;17.70;12.73;;;2.90;99.90;;;;;;5040410;28;20224;-56
2023/12/02 01:48:42;;;;;;;19.03;13.40;;;3.10;99.90;;;;;;5040459;28;20289;-57
2023/12/02 01:51:10;;;;;;;18.23;12.87;;;3.10;99.90;;;;;;5043815;28;20201;-57
2023/12/02 01:53:37;;;;;;;17.23;13.10;;;3.20;99.90;;;;;;5043728;28;20205;-57
2023/12/02 01:56:04;;;;;;;16.17;12.33;;;3.30;99.90;;;;;;5040880;28;20210;-57
2023/12/02 01:58:31;;;;;;;18.13;12.70;;;3.40;99.90;;;;;;5039883;28;20257;-56
2023/12/02 02:00:58;;;;;;;18.60;12.63;;;3.40;99.90;;;;;;5041814;28;20206;-57
2023/12/02 02:03:26;;;;;;;17.90;12.63;;;3.20;99.90;;;;;;5043755;28;20209;-57
2023/12/02 02:05:53;;;;;;;18.80;13.03;;;3.20;99.90;;;;;;5042762;28;20282;-57
2023/12/02 02:08:19;;;;;;;18.03;12.90;;;3.20;99.90;;;;;;5039806;28;20256;-57
2023/12/02 02:10:46;;;;;;;17.53;12.53;;;3.30;99.90;;;;;;5039860;28;20630;-57
2023/12/02 02:13:13;;;;;;;53.67;40.73;;;3.30;99.90;;;;;;5047883;28;20260;-56
2023/12/02 02:15:39;;;;;;;19.23;12.97;;;3.30;99.90;;;;;;5039875;28;20206;-56
2023/12/02 02:18:06;;;;;;;16.80;12.17;;;3.30;99.90;;;;;;5041933;28;20657;-57
2023/12/02 02:20:34;;;;;;;18.53;13.10;;;3.30;99.90;;;;;;5043312;28;20313;-57
2023/12/02 02:23:02;;;;;;;18.37;13.03;;;3.30;99.90;;;;;;5041138;28;20675;-57
2023/12/02 02:25:29;;;;;;;18.27;12.87;;;3.30;99.90;;;;;;5039819;28;20229;-57
2023/12/02 02:27:55;;;;;;;17.07;12.40;;;3.30;99.90;;;;;;5040704;28;20222;-57
2023/12/02 02:30:23;;;;;;;16.80;12.70;;;3.30;99.90;;;;;;5043111;28;20202;-57
2023/12/02 02:32:49;;;;;;;19.17;13.33;;;3.20;99.90;;;;;;5042774;28;20206;-57
2023/12/02 02:35:16;;;;;;;17.47;12.43;;;3.00;99.90;;;;;;5039594;28;20211;-56
2023/12/02 02:37:44;;;;;;;16.87;12.07;;;2.80;99.90;;;;;;5039250;28;20284;-57
2023/12/02 02:40:13;;;;;;;16.97;12.30;;;2.80;99.90;;;;;;5042464;28;20201;-57
2023/12/02 02:42:41;;;;;;;18.60;12.73;;;2.90;99.90;;;;;;5043047;28;20205;-56
2023/12/02 02:45:08;;;;;;;19.00;12.80;;;2.90;99.90;;;;;;5039952;28;20576;-57
2023/12/02 02:47:35;;;;;;;19.70;13.47;;;2.70;99.90;;;;;;5039015;28;20704;-57
2023/12/02 02:50:02;;;;;;;18.43;12.27;;;2.60;99.90;;;;;;5041166;28;20210;-57
2023/12/02 02:52:29;;;;;;;17.23;13.30;;;2.70;99.90;;;;;;5042672;28;20255;-58
2023/12/02 02:54:56;;;;;;;19.33;13.57;;;2.90;99.90;;;;;;5041582;28;20206;-57
2023/12/02 02:57:23;;;;;;;17.97;13.17;;;3.00;99.90;;;;;;5039127;28;20288;-57
2023/12/02 02:59:50;;;;;;;18.80;13.93;;;3.10;99.90;;;;;;5039563;28;20206;-57
2023/12/02 03:02:17;;;;;;;18.90;12.87;;;3.20;99.90;;;;;;5042615;28;20202;-57
2023/12/02 03:04:43;;;;;;;20.03;13.67;;;3.30;99.90;;;;;;5042826;28;20205;-58
2023/12/02 03:07:10;;;;;;;16.60;12.80;;;3.30;99.90;;;;;;5039139;28;20333;-55
2023/12/02 03:09:37;;;;;;;16.77;12.77;;;3.20;99.90;;;;;;5039816;28;20206;-57
2023/12/02 03:12:04;;;;;;;18.67;13.27;;;3.20;99.90;;;;;;5041288;28;20213;-58
2023/12/02 03:14:32;;;;;;;16.97;12.10;;;3.10;99.90;;;;;;5042816;28;20403;-56
2023/12/02 03:16:58;;;;;;;18.63;13.13;;;3.10;99.90;;;;;;5040853;28;20230;-56
2023/12/02 03:19:25;;;;;;;17.03;12.60;;;3.00;99.90;;;;;;5039218;28;20217;-57
2023/12/02 03:21:52;;;;;;;19.93;13.83;;;3.00;99.90;;;;;;5039376;28;20264;-58
2023/12/02 03:24:18;;;;;;;19.03;13.53;;;3.10;99.90;;;;;;5042879;28;20212;-56
2023/12/02 03:26:45;;;;;;;19.43;13.53;;;3.10;99.90;;;;;;5042639;28;20226;-57
2023/12/02 03:29:12;;;;;;;18.53;13.50;;;2.90;99.90;;;;;;5039235;28;20199;-57
2023/12/02 03:31:40;;;;;;;19.53;14.17;;;3.00;99.90;;;;;;5038992;28;20210;-58
2023/12/02 03:34:06;;;;;;;18.80;13.27;;;3.00;99.90;;;;;;5041493;28;20641;-57
2023/12/02 03:36:33;;;;;;;19.73;14.10;;;3.10;99.90;;;;;;5042234;28;20711;-55
2023/12/02 03:39:00;;;;;;;18.60;14.30;;;3.20;99.90;;;;;;5041227;28;20278;-57
2023/12/02 03:41:28;;;;;;;20.53;14.17;;;3.30;99.90;;;;;;5038993;28;20206;-56
2023/12/02 03:43:55;;;;;;;18.80;13.13;;;3.20;99.90;;;;;;5039736;28;20233;-58
2023/12/02 03:46:21;;;;;;;18.67;14.33;;;3.20;99.90;;;;;;5042183;28;20229;-56
2023/12/02 03:48:49;;;;;;;21.47;14.63;;;3.20;99.90;;;;;;5042508;28;20279;-57
2023/12/02 03:51:16;;;;;;;19.37;14.30;;;2.90;99.90;;;;;;5041864;28;20203;-57
2023/12/02 03:53:44;;;;;;;20.03;14.17;;;2.80;99.90;;;;;;5042913;28;20213;-57
2023/12/02 03:56:12;;;;;;;18.27;13.30;;;2.60;99.90;;;;;;5045209;28;20697;-57
2023/12/02 03:58:39;;;;;;;19.53;13.27;;;2.40;99.90;;;;;;5045713;28;20226;-57
2023/12/02 04:01:06;;;;;;;20.73;14.83;;;2.40;99.90;;;;;;5043594;28;20206;-57
2023/12/02 04:03:33;;;;;;;21.70;13.77;;;2.50;99.90;;;;;;5042735;28;20210;-56
2023/12/02 04:06:01;;;;;;;19.27;13.73;;;2.50;99.90;;;;;;5043546;28;20210;-56
2023/12/02 04:08:27;;;;;;;20.20;14.43;;;2.40;99.90;;;;;;5045791;28;20194;-56
2023/12/02 04:10:54;;;;;;;18.97;13.90;;;2.20;99.90;;;;;;5045338;28;20213;-57
2023/12/02 04:13:21;;;;;;;21.03;14.27;;;2.20;99.90;;;;;;5042344;28;20207;-57
2023/12/02 04:15:48;;;;;;;20.20;14.53;;;2.30;99.90;;;;;;5042262;28;20218;-55
2023/12/02 04:18:14;;;;;;;20.57;15.10;;;2.40;99.90;;;;;;5075916;22;20748;-49
2023/12/02 04:20:41;;;;;;;19.43;14.20;;;2.60;99.90;;;;;;5045562;28;20285;-48
2023/12/02 04:23:09;;;;;;;20.83;14.53;;;2.40;99.90;;;;;;5042568;28;20706;-52
2023/12/02 04:25:37;;;;;;;21.57;15.43;;;2.50;99.90;;;;;;5041602;28;20206;-51
2023/12/02 04:28:04;;;;;;;20.07;14.30;;;2.50;99.90;;;;;;5043232;28;20231;-51
2023/12/02 04:30:31;;;;;;;21.20;14.30;;;2.40;99.90;;;;;;5044964;28;20251;-49
2023/12/02 04:32:58;;;;;;;21.63;15.27;;;2.40;99.90;;;;;;5043957;28;20239;-52
2023/12/02 04:35:25;;;;;;;22.63;14.90;;;2.40;99.90;;;;;;5041569;28;20637;-50
2023/12/02 04:37:52;;;;;;;19.27;14.13;;;2.50;99.90;;;;;;5041329;28;20230;-50
2023/12/02 04:40:20;;;;;;;19.17;13.40;;;2.40;99.90;;;;;;5044817;28;20240;-50
2023/12/02 04:42:47;;;;;;;18.33;13.90;;;2.30;99.90;;;;;;5045313;28;20206;-50
2023/12/02 04:45:13;;;;;;;18.83;13.83;;;2.30;99.90;;;;;;5041345;28;20202;-49
2023/12/02 04:47:40;;;;;;;19.73;13.37;;;2.40;99.90;;;;;;5040866;28;20683;-48
2023/12/02 04:50:08;;;;;;;16.20;11.60;;;2.40;99.90;;;;;;5043482;28;20210;-48
2023/12/02 04:52:35;;;;;;;16.17;11.97;;;2.40;99.90;;;;;;5043167;28;20208;-48
2023/12/02 04:55:02;;;;;;;17.97;12.30;;;2.50;99.90;;;;;;5042676;28;20210;-48
2023/12/02 04:57:30;;;;;;;16.53;12.00;;;2.60;99.90;;;;;;5040565;28;20750;-49
2023/12/02 04:59:57;;;;;;;15.67;11.30;;;2.70;99.90;;;;;;5041451;28;20229;-50
2023/12/02 05:02:24;;;;;;;15.70;11.50;;;2.50;99.90;;;;;;5043247;28;20217;-49
2023/12/02 05:04:51;;;;;;;16.80;11.57;;;2.20;99.90;;;;;;5044110;28;20205;-53
2023/12/02 05:07:17;;;;;;;14.93;11.27;;;2.20;99.90;;;;;;5044047;28;20320;-50
2023/12/02 05:09:44;;;;;;;15.40;11.67;;;2.00;99.90;;;;;;5044143;28;20213;-49
2023/12/02 05:12:11;;;;;;;15.73;12.10;;;1.90;99.90;;;;;;5041427;28;20210;-52
2023/12/02 05:14:39;;;;;;;18.23;12.50;;;1.80;99.90;;;;;;5040905;28;20206;-49
2023/12/02 05:17:06;;;;;;;15.43;11.00;;;1.80;99.90;;;;;;5042027;28;20650;-49
2023/12/02 05:19:33;;;;;;;15.83;11.27;;;1.90;99.90;;;;;;5044214;28;20210;-52
2023/12/02 05:21:59;;;;;;;17.53;11.70;;;1.90;99.90;;;;;;5042845;28;20209;-49
2023/12/02 05:24:26;;;;;;;18.53;12.10;;;1.80;99.90;;;;;;5040321;28;20202;-50
2023/12/02 05:26:53;;;;;;;17.83;12.47;;;1.80;99.90;;;;;;5039827;28;20727;-52
2023/12/02 05:29:19;;;;;;;15.83;11.10;;;1.90;99.90;;;;;;5043903;28;20570;-49
2023/12/02 05:31:47;;;;;;;14.40;10.47;;;2.00;99.90;;;;;;5043513;28;20291;-49
2023/12/02 05:34:14;;;;;;;13.77;10.00;;;1.80;99.90;;;;;;5040232;28;20206;-49
2023/12/02 05:36:41;;;;;;;13.27;9.80;;;1.80;99.90;;;;;;5039606;28;20711;-48
2023/12/02 05:39:09;;;;;;;10.93;8.67;;;1.70;99.90;;;;;;5041903;28;20218;-50
2023/12/02 05:41:35;;;;;;;11.87;9.13;;;1.50;99.90;;;;;;5043421;28;20201;-52
2023/12/02 05:44:02;;;;;;;12.23;9.10;;;1.50;99.90;;;;;;5042381;28;20271;-49
2023/12/02 05:46:29;;;;;;;12.93;9.10;;;1.40;99.90;;;;;;5040063;28;20199;-49
2023/12/02 05:48:57;;;;;;;11.20;8.77;;;1.30;99.90;;;;;;5040455;28;20568;-49
2023/12/02 05:51:24;;;;;;;12.27;9.20;;;1.20;99.90;;;;;;5043447;28;20206;-51
2023/12/02 05:53:50;;;;;;;11.93;8.90;;;1.20;99.90;;;;;;5043354;28;20268;-49
2023/12/02 05:56:19;;;;;;;10.80;8.63;;;1.20;99.90;;;;;;5040057;28;20210;-50
2023/12/02 05:58:46;;;;;;;11.40;8.87;;;1.30;99.90;;;;;;5039975;28;20317;-53
2023/12/02 06:01:12;;;;;;;12.07;8.83;;;1.50;99.90;;;;;;5042372;28;20648;-49
2023/12/02 06:03:39;;;;;;;12.03;9.37;;;1.60;99.90;;;;;;5043285;28;20209;-49
2023/12/02 06:06:12;;;;;;;12.60;9.17;;;1.60;99.90;;;;;;5041592;28;20323;-53
2023/12/02 06:08:39;;;;;;;12.93;9.07;;;1.50;99.90;;;;;;5039577;28;20209;-49
2023/12/02 06:11:06;;;;;;;12.57;9.37;;;1.40;99.90;;;;;;5041309;28;20206;-49
2023/12/02 06:13:33;;;;;;;13.40;9.70;;;1.40;99.90;;;;;;5042630;28;20201;-50
2023/12/02 06:15:59;;;;;;;10.90;8.33;;;1.50;99.90;;;;;;5042426;28;20212;-49
2023/12/02 06:18:26;;;;;;;9.90;8.27;;;1.60;99.90;;;;;;5039150;28;20668;-50
2023/12/02 06:20:53;;;;;;;9.87;7.83;;;1.40;99.90;;;;;;5039443;28;20203;-49
2023/12/02 06:23:21;;;;;;;10.93;8.33;;;1.40;99.90;;;;;;5039628;28;20217;-49
2023/12/02 06:25:47;;;;;;;10.73;7.73;;;1.30;99.90;;;;;;5039663;28;20235;-49
2023/12/02 06:28:14;;;;;;;9.70;7.50;;;1.50;99.90;;;;;;5041872;28;20221;-53
2023/12/02 06:30:41;;;;;;;10.13;7.63;;;1.50;99.90;;;;;;5042750;28;20202;-49
2023/12/02 06:33:08;;;;;;;9.67;7.57;;;1.30;99.90;;;;;;5041079;28;20213;-49
2023/12/02 06:35:35;;;;;;;10.90;8.40;;;1.20;99.90;;;;;;5039205;28;20213;-49
2023/12/02 06:38:01;;;;;;;12.13;8.40;;;1.10;99.90;;;;;;5039835;28;20234;-50
2023/12/02 06:40:29;;;;;;;9.77;7.90;;;1.10;99.90;;;;;;5042780;28;20534;-51
2023/12/02 06:42:56;;;;;;;11.23;8.30;;;1.20;99.90;;;;;;5042242;28;20637;-50
2023/12/02 06:45:23;;;;;;;11.23;7.93;;;1.20;99.90;;;;;;5039262;28;20234;-51
2023/12/02 06:47:49;;;;;;;12.40;8.83;;;1.30;99.90;;;;;;5038964;28;20222;-49
2023/12/02 06:50:19;;;;;;;10.80;8.27;;;1.40;99.90;;;;;;5041964;28;20210;-48
2023/12/02 06:52:46;;;;;;;11.73;8.23;;;1.30;99.90;;;;;;5042849;28;20214;-49
2023/12/02 06:55:13;;;;;;;11.50;8.60;;;1.20;99.90;;;;;;5039538;28;20292;-52
2023/12/02 06:57:41;;;;;;;11.27;8.30;;;1.10;99.90;;;;;;5038848;28;20225;-49
2023/12/02 07:00:10;;;;;;;11.70;9.00;;;1.00;99.90;;;;;;5040727;28;20292;-50
2023/12/02 07:02:38;;;;;;;12.40;9.00;;;0.90;99.90;;;;;;5042345;28;20213;-50
2023/12/02 07:05:05;;;;;;;11.27;8.50;;;0.90;99.90;;;;;;5041354;28;20213;-49
2023/12/02 07:07:32;;;;;;;13.63;9.33;;;0.80;99.90;;;;;;5038888;28;20218;-50
2023/12/02 07:09:58;;;;;;;12.07;8.77;;;0.80;99.90;;;;;;5039304;28;20210;-50
2023/12/02 07:12:25;;;;;;;13.23;8.93;;;0.80;99.90;;;;;;5041944;28;20235;-50
2023/12/02 07:14:54;;;;;;;11.77;8.83;;;0.80;99.90;;;;;;5042099;28;20631;-50
2023/12/02 07:17:21;;;;;;;11.93;9.20;;;0.80;99.90;;;;;;5038326;28;20244;-49
2023/12/02 07:19:48;;;;;;;13.73;9.53;;;0.80;99.90;;;;;;5038784;28;20218;-50
2023/12/02 07:22:15;;;;;;;13.03;9.07;;;0.80;99.90;;;;;;5041415;28;20297;-49
2023/12/02 07:24:41;;;;;;;11.57;8.70;;;0.80;99.90;;;;;;5042834;28;20212;-51
2023/12/02 07:27:08;;;;;;;11.97;8.97;;;1.00;99.90;;;;;;5044052;28;20230;-50
2023/12/02 07:29:35;;;;;;;11.70;8.37;;;1.00;99.90;;;;;;5042655;28;20225;-50
2023/12/02 07:32:04;;;;;;;11.60;8.30;;;0.90;99.90;;;;;;5043171;28;20621;-50
2023/12/02 07:34:31;;;;;;;11.27;8.67;;;0.90;99.90;;;;;;5046100;28;20801;-50
2023/12/02 07:36:57;;;;;;;12.07;8.80;;;1.00;99.90;;;;;;5045457;28;20225;-53
2023/12/02 07:39:24;;;;;;;12.90;9.40;;;1.00;99.90;;;;;;5042548;28;20218;-51
2023/12/02 07:41:51;;;;;;;13.23;9.20;;;1.00;99.90;;;;;;5042319;28;20214;-50
2023/12/02 07:44:18;;;;;;;12.03;9.17;;;1.10;99.90;;;;;;5045092;28;20244;-48
2023/12/02 07:46:44;;;;;;;12.80;9.40;;;1.20;99.90;;;;;;5045575;28;20225;-50
2023/12/02 07:49:12;;;;;;;12.20;8.87;;;1.40;99.90;;;;;;5043807;28;20202;-48
2023/12/02 07:51:39;;;;;;;13.17;9.70;;;1.40;99.90;;;;;;5042441;28;20209;-49
2023/12/02 07:54:06;;;;;;;12.57;9.23;;;1.30;99.90;;;;;;5043369;28;20593;-53
2023/12/02 07:56:33;;;;;;;12.97;9.43;;;1.40;99.90;;;;;;5045474;28;20225;-49
2023/12/02 07:58:59;;;;;;;12.30;8.40;;;1.50;99.90;;;;;;5045097;28;20739;-49
2023/12/02 08:01:26;;;;;;;10.57;7.80;;;1.40;99.90;;;;;;5043052;28;20202;-52
2023/12/02 08:03:53;;;;;;;10.57;8.17;;;1.40;99.90;;;;;;5042756;28;20659;-49
2023/12/02 08:06:21;;;;;;;11.07;7.80;;;1.30;99.90;;;;;;5045654;28;20201;-49
2023/12/02 08:08:48;;;;;;;10.73;8.27;;;1.30;99.90;;;;;;5045534;28;20197;-53
2023/12/02 08:11:15;;;;;;;10.53;7.77;;;1.30;99.90;;;;;;5043325;28;20362;-49
2023/12/02 08:13:42;;;;;;;12.43;8.50;;;1.20;99.90;;;;;;5042079;28;20687;-48
2023/12/02 08:16:10;;;;;;;11.67;8.63;;;1.30;99.90;;;;;;5043184;28;20674;-50
2023/12/02 08:18:36;;;;;;;12.73;9.40;;;1.30;99.90;;;;;;5044838;28;20244;-51
2023/12/02 08:21:03;;;;;;;12.40;8.80;;;1.40;99.90;;;;;;5044177;28;20690;-49
2023/12/02 08:23:31;;;;;;;11.47;8.77;;;1.40;99.90;;;;;;5041624;28;20263;-49
2023/12/02 08:25:58;;;;;;;11.97;8.20;;;1.50;99.90;;;;;;5041512;28;20524;-52
2023/12/02 08:28:25;;;;;;;11.67;8.17;;;1.50;99.90;;;;;;5045065;28;20221;-49
2023/12/02 08:30:51;;;;;;;11.57;8.20;;;1.40;99.90;;;;;;5045111;28;20263;-49
2023/12/02 08:33:18;;;;;;;11.47;8.03;;;1.20;99.90;;;;;;5042039;28;20239;-49
2023/12/02 08:35:45;;;;;;;11.50;7.77;;;1.30;99.90;;;;;;5040978;28;20610;-50
2023/12/02 08:38:11;;;;;;;11.33;7.70;;;1.40;99.90;;;;;;5042498;28;20778;-49
2023/12/02 08:40:39;;;;;;;10.80;8.10;;;1.40;99.90;;;;;;5044394;28;20257;-49
2023/12/02 08:43:06;;;;;;;10.57;7.37;;;1.30;99.90;;;;;;5043575;28;20240;-49
2023/12/02 08:45:33;;;;;;;10.80;7.80;;;1.20;99.90;;;;;;5041382;28;20202;-52
2023/12/02 08:47:59;;;;;;;11.73;8.37;;;1.10;99.90;;;;;;5041016;28;20230;-50
2023/12/02 08:50:27;;;;;;;10.80;7.47;;;1.10;99.90;;;;;;5044742;28;20288;-49
2023/12/02 08:52:53;;;;;;;11.90;8.50;;;1.20;99.90;;;;;;5044420;28;20208;-50
2023/12/02 08:55:20;;;;;;;11.93;8.57;;;1.10;99.90;;;;;;5041415;28;20210;-50
2023/12/02 08:57:48;;;;;;;11.00;8.17;;;1.10;99.90;;;;;;5040998;28;20233;-50
2023/12/02 09:00:15;;;;;;;11.13;7.63;;;1.30;99.90;;;;;;5042931;28;20610;-50
2023/12/02 09:02:42;;;;;;;10.97;8.30;;;1.20;99.90;;;;;;5044466;28;20213;-53
2023/12/02 09:05:09;;;;;;;11.10;8.10;;;1.10;99.90;;;;;;5043083;28;20205;-52
2023/12/02 09:07:36;;;;;;;12.07;8.20;;;1.10;99.90;;;;;;5040662;28;20226;-54
2023/12/02 09:10:03;;;;;;;11.47;7.80;;;1.10;99.90;;;;;;5041278;28;20213;-50
2023/12/02 09:12:30;;;;;;;11.67;8.17;;;1.20;99.90;;;;;;5044506;28;20202;-50
2023/12/02 09:15:07;;;;;;;11.43;8.17;;;1.20;99.90;;;;;;5044448;28;20210;-50
2023/12/02 09:18:06;;;;;;;10.70;7.77;;;1.40;99.90;;;;;;5045282;28;20256;-51
2023/12/02 09:20:43;;;;;;;12.53;8.53;;;1.40;99.90;;;;;;5045245;28;20232;-50
2023/12/02 09:23:11;;;;;;;12.77;8.53;;;1.50;99.90;;;;;;5042530;28;20249;-51
2023/12/02 09:25:39;;;;;;;11.93;8.73;;;1.60;99.90;;;;;;5040590;28;20683;-50
2023/12/02 09:28:27;;;;;;;13.17;8.90;;;1.50;99.90;;;;;;5040860;28;20407;-52
2023/12/02 09:31:04;;;;;;;12.83;8.87;;;1.50;99.90;;;;;;5043940;28;20649;-50
2023/12/02 09:33:32;;;;;;;12.27;8.30;;;1.40;99.90;;;;;;5045015;28;20255;-50
2023/12/02 09:36:01;;;;;;;11.43;8.67;;;1.40;99.90;;;;;;5043871;28;20206;-51
2023/12/02 09:38:28;;;;;;;13.13;8.97;;;1.30;99.90;;;;;;5043753;28;20518;-50
2023/12/02 09:41:18;;;;;;;12.90;9.00;;;1.40;99.90;;;;;;5043525;28;20384;-50
2023/12/02 09:44:00;;;;;;;13.90;8.83;;;1.50;99.90;;;;;;5046088;28;20209;-50
2023/12/02 09:46:32;;;;;;;12.63;8.93;;;1.60;99.90;;;;;;5043600;28;20220;-50
2023/12/02 09:49:31;;;;;;;15.67;8.73;;;1.90;99.90;;;;;;5042625;28;20225;-50
2023/12/02 09:52:16;;;;;;;16.43;9.90;;;2.10;99.90;;;;;;5048075;28;20579;-50
2023/12/02 09:54:53;;;;;;;12.43;8.53;;;2.10;99.90;;;;;;5045966;28;20216;-52
2023/12/02 09:57:32;;;;;;;13.30;8.60;;;2.10;99.90;;;;;;5040509;28;20278;-53
2023/12/02 10:00:12;;;;;;;11.33;8.13;;;2.10;99.90;;;;;;5039825;28;20260;-50
2023/12/02 10:03:28;;;;;;;10.93;8.20;;;2.00;99.90;;;;;;5044974;28;20631;-51
2023/12/02 10:06:06;;;;;;;12.57;8.70;;;1.90;99.90;;;;;;4947218;29;20225;-51
2023/12/02 10:08:44;;;;;;;11.13;7.97;;;1.90;99.90;;;;;;5027707;28;20221;-54
2023/12/02 10:11:19;;;;;;;12.27;7.90;;;1.90;99.90;;;;;;5041625;28;20213;-50
2023/12/02 10:13:53;;;;;;;14.20;8.20;;;1.80;99.90;;;;;;5039924;28;20636;-50
2023/12/02 10:16:24;;;;;;;11.77;8.17;;;1.80;99.90;;;;;;5041669;28;20279;-51
2023/12/02 10:18:54;;;;;;;10.27;7.77;;;1.80;99.90;;;;;;5074667;22;20233;-58
2023/12/02 10:21:21;;;;;;;12.13;7.10;;;1.70;99.90;;;;;;5040466;28;20214;-59
2023/12/02 10:23:58;;;;;;;10.90;7.73;;;1.60;99.90;;;;;;5039612;28;20260;-57
2023/12/02 10:26:28;;;;;;;10.53;7.03;;;1.60;99.90;;;;;;5042648;28;20271;-57
2023/12/02 10:29:09;;;;;;;9.37;6.63;;;1.80;99.90;;;;;;5043009;28;20226;-57
2023/12/02 10:31:38;;;;;;;11.93;7.60;;;2.10;99.90;;;;;;5039756;28;20213;-59
2023/12/02 10:34:22;;;;;;;10.40;7.40;;;2.00;99.90;;;;;;5040485;28;20206;-61
2023/12/02 10:36:52;;;;;;;12.40;7.47;;;2.00;99.90;;;;;;5042791;28;20212;-60
2023/12/02 10:39:30;;;;;;;10.43;7.60;;;2.10;99.90;;;;;;5040249;28;20743;-63
2023/12/02 10:42:01;;;;;;;11.60;7.70;;;2.10;99.90;;;;;;5039483;28;20206;-64
2023/12/02 10:44:32;;;;;;;10.67;7.90;;;2.20;99.90;;;;;;5042529;28;20209;-65
2023/12/02 10:47:00;;;;;;;11.97;8.27;;;2.20;99.90;;;;;;5042428;28;20312;-64
2023/12/02 10:49:30;;;;;;;10.97;7.43;;;2.20;99.90;;;;;;5039239;28;20194;-64
2023/12/02 10:51:59;;;;;;;11.57;8.10;;;2.20;99.90;;;;;;5039014;28;20202;-64
2023/12/02 10:54:30;;;;;;;11.00;7.80;;;2.20;99.90;;;;;;5042100;28;20309;-63
2023/12/02 10:57:06;;;;;;;13.17;7.60;;;2.30;99.90;;;;;;5042284;28;20247;-64
2023/12/02 10:59:41;;;;;;;12.23;7.93;;;2.40;99.90;;;;;;5045264;28;20248;-64
2023/12/02 11:02:25;;;;;;;11.90;7.90;;;2.30;99.90;;;;;;5045815;28;20622;-63
2023/12/02 11:05:10;;;;;;;10.93;7.90;;;2.30;99.90;;;;;;5043568;28;20630;-64
2023/12/02 11:07:40;;;;;;;10.70;8.17;;;2.20;99.90;;;;;;5047730;28;20232;-64
2023/12/02 11:10:10;;;;;;;12.40;8.60;;;2.00;99.90;;;;;;5046084;28;20197;-64
2023/12/02 11:12:42;;;;;;;12.97;8.67;;;2.00;99.90;;;;;;5043328;28;20217;-65
2023/12/02 11:15:13;;;;;;;12.37;8.73;;;1.90;99.90;;;;;;5050528;28;20213;-65
2023/12/02 11:17:42;;;;;;;11.10;8.13;;;2.00;99.90;;;;;;5043156;28;20226;-61
2023/12/02 11:20:20;;;;;;;10.67;7.70;;;2.00;99.90;;;;;;5043071;28;20340;-63
2023/12/02 11:23:42;;;;;;;11.37;8.20;;;1.80;99.90;;;;;;5046187;28;20223;-63
2023/12/02 11:26:19;;;;;;;11.20;8.30;;;1.70;99.90;;;;;;4972577;28;20219;-63
2023/12/02 11:28:54;;;;;;;11.17;8.27;;;1.90;99.90;;;;;;5042907;28;20230;-63
2023/12/02 11:31:41;;;;;;;10.10;7.50;;;2.00;99.90;;;;;;5044925;28;20214;-62
2023/12/02 11:34:21;;;;;;;9.53;7.13;;;1.80;99.90;;;;;;5045619;28;20252;-62
2023/12/02 11:36:59;;;;;;;11.57;7.93;;;1.60;99.90;;;;;;5042631;28;20260;-62
2023/12/02 11:39:37;;;;;;;10.43;7.17;;;1.60;99.90;;;;;;5045533;28;20213;-62
2023/12/02 11:42:14;;;;;;;12.70;7.40;;;1.60;99.90;;;;;;5045652;28;20411;-61
2023/12/02 11:44:55;;;;;;;11.07;7.70;;;1.50;99.90;;;;;;5042244;28;20742;-62
2023/12/02 11:47:32;;;;;;;12.60;8.57;;;1.60;99.90;;;;;;5044483;28;20226;-62
2023/12/02 11:50:16;;;;;;;9.73;7.47;;;1.60;99.90;;;;;;5045654;28;20650;-62
2023/12/02 11:52:57;;;;;;;9.53;7.47;;;1.70;99.90;;;;;;5047774;28;20209;-62
2023/12/02 11:55:31;;;;;;;9.97;7.00;;;1.80;99.90;;;;;;5042400;28;20309;-62
2023/12/02 11:58:08;;;;;;;9.33;6.80;;;1.80;99.90;;;;;;5042060;28;20716;-62
2023/12/02 12:00:47;;;;;;;9.30;6.77;;;1.80;99.90;;;;;;5045876;28;20352;-62
2023/12/02 12:03:35;;;;;;;9.07;6.80;;;1.80;99.90;;;;;;5044050;28;20255;-62
2023/12/02 12:06:13;;;;;;;10.03;6.97;;;1.80;99.90;;;;;;5041434;28;20591;-62
2023/12/02 12:08:54;;;;;;;8.37;5.87;;;2.00;99.90;;;;;;5046528;28;20225;-62
2023/12/02 12:11:21;;;;;;;7.93;5.80;;;1.90;99.90;;;;;;5042355;28;20240;-61
2023/12/02 12:13:49;;;;;;;8.03;6.27;;;1.90;99.90;;;;;;5041924;28;20210;-64
2023/12/02 12:16:16;;;;;;;7.73;5.73;;;1.90;99.90;;;;;;5043270;28;20638;-62
2023/12/02 12:18:43;;;;;;;9.40;5.63;;;1.80;99.90;;;;;;5044461;28;20237;-60
2023/12/02 12:21:10;;;;;;;7.13;5.50;;;1.70;99.90;;;;;;5044001;28;20221;-62
2023/12/02 12:23:36;;;;;;;6.83;5.53;;;1.70;99.90;;;;;;5041718;28;20206;-62
2023/12/02 12:26:06;;;;;;;6.47;5.00;;;1.80;99.90;;;;;;5041818;28;20293;-61
2023/12/02 12:28:32;;;;;;;6.67;5.03;;;1.90;99.90;;;;;;5049494;28;20228;-62
2023/12/02 12:30:59;;;;;;;6.80;5.47;;;1.80;99.90;;;;;;5041166;28;20210;-61
2023/12/02 12:33:26;;;;;;;6.87;5.40;;;1.70;99.90;;;;;;5043845;28;20591;-62
2023/12/02 12:35:52;;;;;;;7.33;5.23;;;1.60;99.90;;;;;;5044501;28;20209;-62
2023/12/02 12:38:21;;;;;;;5.67;5.07;;;1.60;99.90;;;;;;5042616;28;20871;-63
2023/12/02 12:40:48;;;;;;;6.50;4.90;;;1.80;99.90;;;;;;5041567;28;20246;-64
2023/12/02 12:43:16;;;;;;;6.83;5.10;;;1.80;99.90;;;;;;5042261;28;20629;-63
2023/12/02 12:45:42;;;;;;;6.13;4.73;;;1.80;99.90;;;;;;5044804;28;20209;-63
2023/12/02 12:48:11;;;;;;;6.47;5.20;;;2.00;99.90;;;;;;5043900;28;20275;-63
2023/12/02 12:50:38;;;;;;;5.17;4.60;;;2.00;99.90;;;;;;5040882;28;20229;-62
2023/12/02 12:53:11;;;;;;;4.53;3.93;;;1.90;99.90;;;;;;5041452;28;20567;-63